Time;durP1;ratioP1;P1;durP2;ratioP2;P2;SDS_P1;SDS_P2;PMS_P1;PMS_P2;Temp;Humidity;BMP_temperature;BMP_pressure;BME280_temperature;BME280_humidity;BME280_pressure;Samples;Min_cycle;Max_cycle;Signal;HPM_P1;HPM_P2
2020/12/11 00:00:13;;;;;;;2.17;1.98;;;16.90;52.90;;;;;;5075756;28;20043;-47
2020/12/11 00:02:39;;;;;;;2.67;1.25;;;16.90;53.00;;;;;;5081729;28;20044;-47
2020/12/11 00:05:07;;;;;;;1.52;1.08;;;16.90;53.00;;;;;;5083333;28;20079;-49
2020/12/11 00:07:35;;;;;;;1.33;1.23;;;16.90;53.10;;;;;;5080568;28;20044;-49
2020/12/11 00:10:04;;;;;;;1.30;1.17;;;16.90;53.10;;;;;;5084224;28;20128;-50
2020/12/11 00:12:30;;;;;;;1.88;0.90;;;16.80;53.20;;;;;;5080784;28;20797;-50
2020/12/11 00:14:57;;;;;;;4.78;0.85;;;16.80;53.20;;;;;;5084643;28;20411;-56
2020/12/11 00:17:26;;;;;;;3.55;1.70;;;16.80;53.30;;;;;;5083440;28;20500;-49
2020/12/11 00:19:53;;;;;;;3.72;0.57;;;16.80;53.30;;;;;;5082843;28;20063;-49
2020/12/11 00:22:20;;;;;;;1.50;1.08;;;16.80;53.30;;;;;;5078131;28;20044;-57
2020/12/11 00:24:47;;;;;;;1.75;1.58;;;16.80;53.30;;;;;;5076040;28;20044;-59
2020/12/11 00:27:14;;;;;;;5.65;1.20;;;16.80;53.30;;;;;;5074669;28;20127;-60
2020/12/11 00:29:41;;;;;;;4.10;1.67;;;16.80;53.30;;;;;;5079866;28;20170;-50
2020/12/11 00:32:08;;;;;;;1.60;1.00;;;16.80;53.40;;;;;;5081967;28;20051;-49
2020/12/11 00:34:35;;;;;;;2.92;1.15;;;16.80;53.50;;;;;;5084955;28;20047;-49
2020/12/11 00:37:01;;;;;;;4.60;1.30;;;16.80;53.50;;;;;;5071051;28;20062;-50
2020/12/11 00:39:28;;;;;;;2.13;1.00;;;16.80;53.50;;;;;;5073334;28;20124;-53
2020/12/11 00:41:55;;;;;;;2.92;1.30;;;16.80;53.60;;;;;;5083792;28;20124;-50
2020/12/11 00:44:23;;;;;;;1.95;1.00;;;16.80;53.60;;;;;;5061364;28;20048;-48
2020/12/11 00:46:49;;;;;;;3.45;1.35;;;16.80;53.60;;;;;;5073569;28;20093;-52
2020/12/11 00:49:16;;;;;;;1.92;1.02;;;16.80;53.70;;;;;;5058949;28;20524;-48
2020/12/11 00:51:43;;;;;;;5.10;1.52;;;16.80;53.70;;;;;;5055359;28;20048;-51
2020/12/11 00:54:10;;;;;;;0.98;0.77;;;16.80;53.80;;;;;;5057372;28;20123;-53
2020/12/11 00:56:37;;;;;;;4.20;2.03;;;16.80;54.50;;;;;;5056699;28;20048;-52
2020/12/11 00:59:03;;;;;;;3.55;1.35;;;16.80;53.90;;;;;;5076085;28;20113;-50
2020/12/11 01:01:35;;;;;;;1.60;1.45;;;16.80;53.90;;;;;;5079526;28;20145;-49
2020/12/11 01:04:03;;;;;;;2.13;0.88;;;16.80;54.00;;;;;;5068567;28;20044;-53
2020/12/11 01:06:30;;;;;;;1.65;0.93;;;16.80;54.00;;;;;;5080763;28;20054;-50
2020/12/11 01:08:57;;;;;;;3.25;1.15;;;16.80;54.00;;;;;;5084078;28;20454;-48
2020/12/11 01:11:24;;;;;;;3.45;1.15;;;16.80;54.10;;;;;;5079916;28;20060;-53
2020/12/11 01:13:50;;;;;;;2.67;1.65;;;16.80;54.10;;;;;;5075827;28;20044;-50
2020/12/11 01:16:17;;;;;;;1.95;1.15;;;16.80;54.10;;;;;;5079852;28;20119;-51
2020/12/11 01:18:44;;;;;;;2.90;1.45;;;16.80;54.00;;;;;;5077029;28;20048;-51
2020/12/11 01:21:11;;;;;;;1.67;1.05;;;16.80;54.10;;;;;;5086941;28;20046;-47
2020/12/11 01:23:38;;;;;;;1.77;0.98;;;16.80;54.20;;;;;;5076483;28;20052;-54
2020/12/11 01:26:08;;;;;;;1.30;1.23;;;16.90;54.30;;;;;;5080939;28;20053;-53
2020/12/11 01:28:34;;;;;;;2.63;2.10;;;16.90;54.30;;;;;;5083928;28;20046;-51
2020/12/11 01:31:01;;;;;;;2.05;0.98;;;16.80;54.20;;;;;;5074859;28;20040;-50
2020/12/11 01:33:27;;;;;;;1.73;0.95;;;16.80;54.30;;;;;;5074816;28;20108;-50
2020/12/11 01:35:55;;;;;;;3.75;1.52;;;16.80;54.30;;;;;;5076633;28;20651;-53
2020/12/11 01:38:21;;;;;;;29.10;2.33;;;16.80;54.30;;;;;;5074997;28;20051;-56
2020/12/11 01:40:48;;;;;;;4.45;1.17;;;16.80;54.30;;;;;;5075450;28;20040;-63
2020/12/11 01:43:14;;;;;;;3.83;1.33;;;16.80;54.10;;;;;;5076851;28;20059;-59
2020/12/11 01:45:41;;;;;;;1.92;1.23;;;16.90;54.30;;;;;;5073749;28;20044;-60
2020/12/11 01:48:08;;;;;;;3.40;1.08;;;16.90;54.50;;;;;;5069765;28;20456;-65
2020/12/11 01:50:34;;;;;;;3.28;0.98;;;16.90;54.70;;;;;;5085870;28;20040;-65
2020/12/11 01:53:02;;;;;;;5.40;0.88;;;17.00;54.90;;;;;;5084570;28;20044;-63
2020/12/11 01:55:28;;;;;;;3.42;2.03;;;17.00;54.90;;;;;;5083819;28;20201;-63
2020/12/11 01:58:00;;;;;;;1.40;0.85;;;17.10;54.90;;;;;;5086712;28;20056;-61
2020/12/11 02:00:28;;;;;;;5.85;0.90;;;17.10;54.90;;;;;;5085816;28;20102;-60
2020/12/11 02:03:04;;;;;;;2.35;0.63;;;17.10;54.80;;;;;;5088584;28;20031;-62
2020/12/11 02:05:31;;;;;;;7.25;1.27;;;17.20;54.80;;;;;;5087328;28;20044;-61
2020/12/11 02:07:57;;;;;;;4.13;1.30;;;17.30;54.70;;;;;;5086613;28;20044;-62
2020/12/11 02:10:25;;;;;;;6.00;0.73;;;17.30;54.60;;;;;;5086765;28;20036;-64
2020/12/11 02:12:53;;;;;;;2.38;1.25;;;17.30;54.50;;;;;;5087542;28;20040;-62
2020/12/11 02:15:19;;;;;;;6.03;1.70;;;17.40;54.40;;;;;;5072702;28;20083;-61
2020/12/11 02:17:47;;;;;;;2.65;0.77;;;17.40;54.30;;;;;;5086720;28;20044;-62
2020/12/11 02:20:13;;;;;;;1.27;0.90;;;17.40;54.20;;;;;;5077436;28;20055;-62
2020/12/11 02:22:41;;;;;;;1.48;0.73;;;17.50;54.10;;;;;;5077840;28;20115;-60
2020/12/11 02:25:08;;;;;;;2.28;1.13;;;17.50;54.00;;;;;;5074405;28;20594;-62
2020/12/11 02:27:35;;;;;;;4.50;0.95;;;17.60;53.90;;;;;;5080313;28;20043;-61
2020/12/11 02:30:01;;;;;;;1.15;0.82;;;17.60;53.80;;;;;;5088945;28;20044;-62
2020/12/11 02:32:28;;;;;;;4.22;0.73;;;17.60;53.70;;;;;;5075804;28;20059;-61
2020/12/11 02:34:54;;;;;;;1.90;0.88;;;17.60;53.60;;;;;;5079416;28;20053;-61
2020/12/11 02:37:21;;;;;;;6.32;1.10;;;17.70;53.60;;;;;;5068108;28;20051;-61
2020/12/11 02:39:48;;;;;;;2.40;0.70;;;17.70;53.40;;;;;;5057670;28;20586;-61
2020/12/11 02:42:15;;;;;;;4.57;0.30;;;17.70;53.30;;;;;;5086304;28;20535;-61
2020/12/11 02:44:41;;;;;;;5.18;1.33;;;17.70;53.20;;;;;;5085494;28;20040;-61
2020/12/11 02:47:08;;;;;;;1.95;0.82;;;17.70;53.20;;;;;;5077366;28;20041;-61
2020/12/11 02:49:34;;;;;;;1.55;0.77;;;17.80;53.10;;;;;;5075009;28;20500;-61
2020/12/11 02:52:00;;;;;;;2.75;1.30;;;17.80;53.10;;;;;;5076501;28;20119;-61
2020/12/11 02:54:27;;;;;;;0.80;0.60;;;17.80;53.00;;;;;;5070712;28;20055;-60
2020/12/11 02:56:54;;;;;;;0.82;0.82;;;17.80;52.90;;;;;;5071672;28;20058;-61
2020/12/11 02:59:21;;;;;;;1.55;0.47;;;17.80;52.90;;;;;;5084806;28;20079;-60
2020/12/11 03:01:47;;;;;;;4.10;1.25;;;17.80;52.90;;;;;;5076369;28;20045;-60
2020/12/11 03:04:14;;;;;;;1.95;0.50;;;17.80;52.90;;;;;;5074003;28;20127;-61
2020/12/11 03:06:40;;;;;;;2.38;0.30;;;17.90;52.90;;;;;;5086527;28;20058;-61
2020/12/11 03:09:07;;;;;;;2.05;0.50;;;17.90;52.80;;;;;;5085657;28;20072;-60
2020/12/11 03:11:33;;;;;;;6.13;1.05;;;17.90;52.80;;;;;;5075374;28;20044;-61
2020/12/11 03:14:00;;;;;;;2.03;0.50;;;17.90;52.70;;;;;;5080183;28;20052;-60
2020/12/11 03:16:27;;;;;;;0.80;0.25;;;17.90;52.70;;;;;;5084429;28;20043;-60
2020/12/11 03:18:53;;;;;;;2.80;0.52;;;17.90;52.70;;;;;;5079812;28;20609;-59
2020/12/11 03:21:20;;;;;;;0.77;0.55;;;18.00;52.70;;;;;;5070708;28;20047;-60
2020/12/11 03:23:46;;;;;;;0.70;0.47;;;18.00;52.70;;;;;;5083118;28;20135;-60
2020/12/11 03:26:13;;;;;;;1.48;0.32;;;18.00;52.70;;;;;;5074315;28;20037;-60
2020/12/11 03:28:39;;;;;;;3.25;1.33;;;18.00;52.60;;;;;;5074652;28;20124;-59
2020/12/11 03:31:07;;;;;;;5.72;0.25;;;18.00;52.60;;;;;;5074784;28;20028;-60
2020/12/11 03:33:33;;;;;;;2.05;0.10;;;18.00;52.50;;;;;;5070595;28;20504;-59
2020/12/11 03:36:00;;;;;;;2.35;0.60;;;18.00;52.50;;;;;;5073388;28;20059;-60
2020/12/11 03:38:26;;;;;;;1.70;0.28;;;18.00;52.40;;;;;;5074805;28;20155;-60
2020/12/11 03:40:53;;;;;;;2.05;0.63;;;18.00;52.50;;;;;;5079887;28;20046;-60
2020/12/11 03:43:19;;;;;;;3.83;0.55;;;18.10;52.40;;;;;;5076950;28;20044;-60
2020/12/11 03:45:46;;;;;;;3.30;0.57;;;18.10;52.40;;;;;;5071835;28;20044;-60
2020/12/11 03:48:14;;;;;;;2.95;0.40;;;18.00;52.30;;;;;;5086307;28;20051;-59
2020/12/11 03:50:40;;;;;;;2.20;0.40;;;18.10;52.40;;;;;;5074445;28;20047;-60
2020/12/11 03:53:06;;;;;;;1.85;0.28;;;18.10;52.50;;;;;;5080499;28;20812;-60
2020/12/11 03:55:33;;;;;;;3.05;0.60;;;18.10;52.50;;;;;;5083347;28;20036;-59
2020/12/11 03:57:59;;;;;;;1.52;0.10;;;18.10;52.50;;;;;;5074184;28;20048;-60
2020/12/11 04:00:26;;;;;;;0.98;0.43;;;18.20;52.60;;;;;;5069954;28;20040;-62
2020/12/11 04:02:52;;;;;;;2.17;0.20;;;18.10;52.60;;;;;;5077681;28;20454;-61
2020/12/11 04:05:20;;;;;;;2.83;0.30;;;18.10;52.60;;;;;;5081979;28;20051;-62
2020/12/11 04:07:46;;;;;;;1.85;0.28;;;18.20;52.70;;;;;;5055774;28;20502;-62
2020/12/11 04:10:13;;;;;;;1.08;0.30;;;18.20;52.70;;;;;;5073731;28;20032;-63
2020/12/11 04:12:39;;;;;;;2.85;0.10;;;18.20;52.80;;;;;;5075257;28;20161;-62
2020/12/11 04:15:06;;;;;;;1.90;0.47;;;18.20;52.80;;;;;;5083292;28;20052;-62
2020/12/11 04:17:32;;;;;;;0.35;0.22;;;18.20;52.80;;;;;;5082680;28;20126;-62
2020/12/11 04:19:59;;;;;;;1.13;0.10;;;18.20;52.80;;;;;;5081645;28;20484;-62
2020/12/11 04:22:26;;;;;;;0.20;0.10;;;18.20;52.80;;;;;;5077664;28;20048;-62
2020/12/11 04:24:52;;;;;;;3.80;0.63;;;18.20;52.80;;;;;;5076553;28;20036;-62
2020/12/11 04:27:19;;;;;;;0.20;0.10;;;18.20;52.80;;;;;;5070388;28;20052;-63
2020/12/11 04:29:46;;;;;;;0.68;0.10;;;18.20;52.80;;;;;;5084353;28;20054;-54
2020/12/11 04:32:14;;;;;;;0.75;0.10;;;18.20;52.80;;;;;;5077925;28;20126;-56
2020/12/11 04:34:41;;;;;;;1.10;0.10;;;18.30;52.90;;;;;;5083419;28;20070;-56
2020/12/11 04:37:07;;;;;;;0.95;0.30;;;18.30;52.90;;;;;;5074314;28;20400;-58
2020/12/11 04:39:35;;;;;;;1.10;0.10;;;18.30;53.00;;;;;;5068557;28;20048;-58
2020/12/11 04:42:02;;;;;;;0.20;0.10;;;18.30;53.00;;;;;;5071692;28;20102;-59
2020/12/11 04:44:29;;;;;;;0.40;0.10;;;18.30;52.90;;;;;;5074144;28;20064;-60
2020/12/11 04:46:57;;;;;;;1.00;0.10;;;18.30;52.90;;;;;;5077358;28;20562;-60
2020/12/11 04:49:24;;;;;;;0.75;0.08;;;18.30;52.90;;;;;;5081677;28;20412;-62
2020/12/11 04:51:51;;;;;;;0.10;0.10;;;18.30;52.80;;;;;;5071743;28;20451;-61
2020/12/11 04:54:22;;;;;;;0.98;0.10;;;18.30;52.90;;;;;;5070520;28;20062;-61
2020/12/11 04:56:50;;;;;;;1.65;0.10;;;18.30;52.80;;;;;;5073121;28;20135;-58
2020/12/11 04:59:18;;;;;;;0.65;0.03;;;18.30;52.80;;;;;;5073417;28;20040;-59
2020/12/11 05:01:45;;;;;;;1.23;0.10;;;18.30;52.80;;;;;;5080866;28;20052;-58
2020/12/11 05:04:12;;;;;;;1.85;0.20;;;18.30;52.80;;;;;;5081775;28;20052;-58
2020/12/11 05:06:38;;;;;;;0.45;0.00;;;18.40;52.90;;;;;;5084593;28;20039;-59
2020/12/11 05:09:12;;;;;;;0.75;0.10;;;18.30;52.80;;;;;;5071854;28;20480;-55
2020/12/11 05:11:41;;;;;;;1.23;0.60;;;18.40;52.80;;;;;;5073112;28;20049;-53
2020/12/11 05:14:19;;;;;;;0.52;0.00;;;18.30;52.70;;;;;;5073258;28;20480;-55
2020/12/11 05:17:01;;;;;;;1.85;0.10;;;18.40;52.80;;;;;;5073212;28;20051;-56
2020/12/11 05:19:29;;;;;;;0.13;0.03;;;18.40;52.80;;;;;;5073261;28;20531;-56
2020/12/11 05:22:09;;;;;;;0.30;0.00;;;18.40;52.80;;;;;;5070077;28;20530;-56
2020/12/11 05:24:43;;;;;;;5.78;0.10;;;18.40;52.70;;;;;;5069092;28;20134;-54
2020/12/11 05:27:31;;;;;;;0.40;0.00;;;18.40;52.80;;;;;;5079574;28;20067;-56
2020/12/11 05:30:00;;;;;;;0.75;0.08;;;18.40;52.80;;;;;;5078648;28;20579;-55
2020/12/11 05:32:38;;;;;;;2.58;0.10;;;18.40;52.80;;;;;;5084583;28;20188;-59
2020/12/11 05:35:06;;;;;;;0.50;0.00;;;18.40;52.80;;;;;;5083867;28;20047;-60
2020/12/11 05:37:45;;;;;;;0.15;0.15;;;18.40;52.90;;;;;;5062365;28;20047;-60
2020/12/11 05:40:16;;;;;;;0.55;0.05;;;18.40;52.70;;;;;;5083685;28;20040;-60
2020/12/11 05:42:43;;;;;;;0.20;0.00;;;18.40;52.70;;;;;;5085664;28;20052;-60
2020/12/11 05:45:18;;;;;;;0.10;0.05;;;18.40;52.60;;;;;;5086004;28;20035;-60
2020/12/11 05:47:44;;;;;;;0.52;0.10;;;18.40;52.50;;;;;;5067944;28;20084;-60
2020/12/11 05:50:19;;;;;;;0.30;0.20;;;18.40;52.30;;;;;;5074417;28;20045;-61
2020/12/11 05:52:48;;;;;;;0.05;0.00;;;18.40;52.30;;;;;;5084371;28;20150;-61
2020/12/11 05:55:18;;;;;;;0.10;0.00;;;18.40;52.30;;;;;;5083182;28;20797;-61
2020/12/11 05:57:45;;;;;;;0.10;0.10;;;18.40;52.30;;;;;;5083660;28;20055;-60
2020/12/11 06:00:13;;;;;;;0.10;0.05;;;18.30;52.30;;;;;;5085541;28;20570;-60
2020/12/11 06:02:43;;;;;;;0.20;0.00;;;18.30;52.30;;;;;;5089377;28;20146;-59
2020/12/11 06:05:14;;;;;;;0.73;0.00;;;18.30;52.30;;;;;;5088835;28;20044;-61
2020/12/11 06:07:43;;;;;;;0.10;0.10;;;18.30;52.30;;;;;;5087713;28;20071;-60
2020/12/11 06:10:12;;;;;;;0.70;0.10;;;18.30;52.30;;;;;;5075200;28;20054;-60
2020/12/11 06:12:38;;;;;;;0.75;0.00;;;18.20;52.30;;;;;;5089522;28;20067;-59
2020/12/11 06:15:09;;;;;;;1.15;0.05;;;18.20;52.40;;;;;;5090426;28;20101;-59
2020/12/11 06:17:39;;;;;;;0.55;0.00;;;18.20;52.50;;;;;;5090521;28;20043;-60
2020/12/11 06:20:07;;;;;;;0.20;0.00;;;18.10;52.50;;;;;;5086371;28;20500;-60
2020/12/11 06:22:35;;;;;;;0.15;0.00;;;18.10;52.60;;;;;;5063921;28;20039;-62
2020/12/11 06:25:26;;;;;;;0.03;0.00;;;18.10;52.70;;;;;;5075997;28;20051;-59
2020/12/11 06:27:53;;;;;;;0.10;0.00;;;18.00;52.70;;;;;;5084740;28;20517;-51
2020/12/11 06:30:23;;;;;;;0.05;0.00;;;18.00;52.80;;;;;;5086605;28;20042;-60
2020/12/11 06:32:50;;;;;;;0.15;0.00;;;18.00;52.90;;;;;;5084292;28;20044;-61
2020/12/11 06:35:18;;;;;;;0.10;0.00;;;17.90;52.90;;;;;;5087227;28;20040;-60
2020/12/11 06:37:44;;;;;;;0.15;0.00;;;17.90;53.10;;;;;;5087251;28;20052;-60
2020/12/11 06:40:11;;;;;;;4.28;0.03;;;17.90;53.20;;;;;;5086324;28;20040;-61
2020/12/11 06:42:47;;;;;;;1.20;0.00;;;17.80;53.20;;;;;;5088769;28;20052;-60
2020/12/11 06:45:19;;;;;;;0.63;0.00;;;17.80;53.20;;;;;;5071606;28;20082;-61
2020/12/11 06:47:54;;;;;;;2.00;0.00;;;17.80;53.20;;;;;;5088225;28;20089;-60
2020/12/11 06:50:25;;;;;;;0.70;0.10;;;17.80;53.40;;;;;;5087195;28;20047;-61
2020/12/11 06:52:51;;;;;;;0.82;0.00;;;17.80;53.40;;;;;;5086156;28;20423;-60
2020/12/11 06:55:18;;;;;;;1.30;0.10;;;17.70;53.40;;;;;;5085376;28;20064;-61
2020/12/11 06:57:49;;;;;;;0.35;0.00;;;17.70;53.40;;;;;;5082226;28;20135;-55
2020/12/11 07:00:37;;;;;;;0.25;0.00;;;17.70;53.40;;;;;;5079577;28;20131;-55
2020/12/11 07:03:18;;;;;;;1.17;0.10;;;17.70;53.50;;;;;;5087211;28;20450;-57
2020/12/11 07:05:46;;;;;;;0.00;0.00;;;17.70;53.60;;;;;;5062011;28;20098;-56
2020/12/11 07:08:14;;;;;;;1.08;0.32;;;17.60;53.70;;;;;;5085588;28;20486;-54
2020/12/11 07:10:42;;;;;;;0.45;0.00;;;17.60;53.70;;;;;;5087409;28;20048;-52
2020/12/11 07:13:10;;;;;;;0.03;0.00;;;17.60;53.80;;;;;;5085155;28;20044;-58
2020/12/11 07:15:39;;;;;;;1.55;0.10;;;17.60;53.80;;;;;;5071163;28;20037;-60
2020/12/11 07:18:13;;;;;;;0.03;0.03;;;17.50;53.80;;;;;;5073582;28;20082;-60
2020/12/11 07:20:48;;;;;;;0.00;0.00;;;17.50;53.80;;;;;;5085018;28;20044;-59
2020/12/11 07:23:16;;;;;;;0.38;0.10;;;17.60;54.00;;;;;;5081960;28;20097;-61
2020/12/11 07:25:43;;;;;;;0.10;0.00;;;17.50;54.00;;;;;;5080752;28;20076;-62
2020/12/11 07:28:10;;;;;;;1.55;0.00;;;17.50;54.00;;;;;;5074399;28;20040;-61
2020/12/11 07:30:37;;;;;;;0.70;0.10;;;17.50;54.10;;;;;;5072597;28;20052;-62
2020/12/11 07:33:04;;;;;;;1.60;0.00;;;17.40;54.00;;;;;;5086573;28;20040;-57
2020/12/11 07:35:31;;;;;;;1.63;0.00;;;17.50;54.20;;;;;;5088981;28;20051;-59
2020/12/11 07:37:59;;;;;;;1.05;0.00;;;17.40;54.20;;;;;;5081002;28;20063;-57
2020/12/11 07:40:27;;;;;;;0.00;0.00;;;17.40;54.20;;;;;;5079063;28;20049;-56
2020/12/11 07:42:53;;;;;;;0.85;0.00;;;17.40;54.30;;;;;;5075297;28;20133;-54
2020/12/11 07:45:24;;;;;;;0.00;0.00;;;17.40;54.40;;;;;;5079572;28;20048;-51
2020/12/11 07:47:53;;;;;;;0.32;0.00;;;17.40;54.40;;;;;;5080245;28;20040;-52
2020/12/11 07:50:23;;;;;;;0.57;0.00;;;17.40;54.40;;;;;;5076334;28;20051;-53
2020/12/11 07:52:52;;;;;;;0.10;0.00;;;17.40;54.50;;;;;;5075376;28;20064;-49
2020/12/11 07:55:21;;;;;;;2.53;0.13;;;17.40;54.70;;;;;;5080840;28;20040;-50
2020/12/11 07:57:51;;;;;;;6.32;0.00;;;17.40;54.90;;;;;;5074994;28;20059;-52
2020/12/11 08:00:19;;;;;;;0.10;0.10;;;17.40;55.00;;;;;;5079008;28;20048;-48
2020/12/11 08:02:50;;;;;;;0.25;0.25;;;17.40;55.00;;;;;;5079862;28;20127;-48
2020/12/11 08:05:17;;;;;;;0.00;0.00;;;17.50;55.10;;;;;;5079666;28;20119;-48
2020/12/11 08:07:49;;;;;;;1.65;0.00;;;17.50;55.00;;;;;;5076290;28;20048;-48
2020/12/11 08:10:18;;;;;;;0.32;0.00;;;17.60;55.00;;;;;;5079193;28;20469;-50
2020/12/11 08:12:47;;;;;;;2.75;0.00;;;17.70;54.90;;;;;;5080331;28;20048;-48
2020/12/11 08:15:31;;;;;;;0.00;0.00;;;17.70;54.80;;;;;;5079887;28;20133;-52
2020/12/11 08:18:22;;;;;;;0.60;0.00;;;17.70;54.70;;;;;;5085276;28;20040;-57
2020/12/11 08:20:55;;;;;;;0.45;0.30;;;17.80;54.60;;;;;;5083591;28;20724;-49
2020/12/11 08:23:37;;;;;;;3.30;0.03;;;17.80;54.50;;;;;;5080022;28;20132;-48
2020/12/11 08:26:06;;;;;;;0.35;0.10;;;17.80;54.30;;;;;;5078371;28;20101;-56
2020/12/11 08:28:34;;;;;;;2.83;0.40;;;17.80;54.20;;;;;;5082214;28;20470;-51
2020/12/11 08:31:20;;;;;;;0.82;0.10;;;17.90;54.30;;;;;;5063211;28;20038;-48
2020/12/11 08:33:48;;;;;;;0.32;0.10;;;17.90;54.30;;;;;;5079215;28;20076;-50
2020/12/11 08:36:19;;;;;;;4.88;0.00;;;17.90;54.40;;;;;;5078698;28;20076;-52
2020/12/11 08:39:17;;;;;;;1.63;0.10;;;17.90;54.50;;;;;;5078308;28;20098;-48
2020/12/11 08:42:18;;;;;;;1.73;0.00;;;18.00;54.50;;;;;;5078824;28;20052;-57
2020/12/11 08:45:06;;;;;;;4.30;0.10;;;17.90;54.50;;;;;;5072131;28;20044;-50
2020/12/11 08:50:25;;;;;;;1.95;0.00;;;17.90;54.60;;;;;;5049358;28;20047;-49
2020/12/11 08:52:51;;;;;;;0.43;0.00;;;18.00;54.70;;;;;;5077143;28;20094;-52
2020/12/11 08:55:18;;;;;;;0.10;0.08;;;18.00;54.70;;;;;;5083052;28;20423;-51
2020/12/11 08:57:49;;;;;;;1.30;0.00;;;18.00;54.70;;;;;;5078860;28;20084;-49
2020/12/11 09:00:18;;;;;;;0.10;0.00;;;18.00;54.60;;;;;;5081232;28;20052;-49
2020/12/11 09:02:44;;;;;;;0.00;0.00;;;18.00;54.60;;;;;;5082354;28;20139;-58
2020/12/11 09:05:12;;;;;;;0.73;0.00;;;18.00;54.50;;;;;;5061576;28;20068;-53
2020/12/11 09:07:39;;;;;;;1.08;0.00;;;18.00;54.50;;;;;;5077323;28;20863;-55
2020/12/11 09:10:06;;;;;;;0.03;0.00;;;18.00;54.40;;;;;;5080277;28;20036;-51
2020/12/11 09:12:35;;;;;;;2.47;0.00;;;18.10;54.40;;;;;;5063089;28;20530;-50
2020/12/11 09:15:08;;;;;;;1.98;0.00;;;18.00;54.50;;;;;;5079981;28;20053;-50
2020/12/11 09:17:35;;;;;;;0.17;0.00;;;18.10;54.50;;;;;;5077919;28;20082;-58
2020/12/11 09:20:03;;;;;;;0.00;0.00;;;18.10;54.40;;;;;;5082582;28;20048;-54
2020/12/11 09:22:30;;;;;;;0.63;0.00;;;18.10;54.40;;;;;;5076378;28;20040;-52
2020/12/11 09:24:56;;;;;;;0.10;0.00;;;18.10;54.40;;;;;;5061218;28;20052;-53
2020/12/11 09:27:23;;;;;;;0.35;0.25;;;18.10;54.40;;;;;;5058414;28;20583;-51
2020/12/11 09:29:51;;;;;;;0.00;0.00;;;18.10;54.60;;;;;;5082724;28;20044;-49
2020/12/11 09:32:27;;;;;;;0.10;0.00;;;18.10;54.60;;;;;;5092834;28;20151;-52
2020/12/11 09:34:54;;;;;;;0.20;0.00;;;18.10;54.60;;;;;;5078285;28;20057;-51
2020/12/11 09:37:21;;;;;;;1.00;0.00;;;18.20;54.60;;;;;;5076404;28;20042;-53
2020/12/11 09:39:48;;;;;;;2.38;0.32;;;18.20;54.60;;;;;;5073663;28;20048;-55
2020/12/11 09:42:40;;;;;;;0.98;0.00;;;18.20;54.50;;;;;;5087796;28;20122;-53
2020/12/11 09:45:16;;;;;;;0.90;0.00;;;18.20;54.50;;;;;;5069734;28;20495;-50
2020/12/11 09:50:35;;;;;;;0.10;0.00;;;18.20;54.40;;;;;;5076082;28;20052;-47
2020/12/11 09:53:13;;;;;;;0.00;0.00;;;18.20;54.40;;;;;;5082954;28;20131;-51
2020/12/11 09:55:43;;;;;;;0.60;0.00;;;18.20;54.40;;;;;;5080854;28;20482;-48
2020/12/11 09:58:10;;;;;;;0.52;0.00;;;18.20;54.40;;;;;;5078078;28;20922;-51
2020/12/11 10:00:39;;;;;;;1.55;0.00;;;18.30;54.40;;;;;;5072994;28;20039;-48
2020/12/11 10:03:09;;;;;;;0.32;0.00;;;18.30;54.30;;;;;;5081721;28;20052;-50
2020/12/11 10:05:37;;;;;;;0.68;0.00;;;18.30;54.20;;;;;;5075434;28;20140;-49
2020/12/11 10:08:04;;;;;;;0.45;0.00;;;18.30;54.20;;;;;;5081058;28;20052;-51
2020/12/11 10:10:31;;;;;;;0.00;0.00;;;18.30;54.10;;;;;;5084937;28;20036;-50
2020/12/11 10:12:58;;;;;;;1.13;0.00;;;18.30;54.10;;;;;;5057766;28;20085;-61
2020/12/11 10:15:25;;;;;;;0.25;0.00;;;18.30;54.10;;;;;;5078316;28;20674;-54
2020/12/11 10:17:51;;;;;;;0.98;0.00;;;18.30;54.10;;;;;;5074826;28;20503;-50
2020/12/11 10:20:19;;;;;;;0.38;0.00;;;18.40;54.10;;;;;;5080171;28;20115;-58
2020/12/11 10:22:49;;;;;;;0.10;0.00;;;18.40;54.10;;;;;;5072621;28;20160;-49
2020/12/11 10:25:16;;;;;;;0.13;0.00;;;18.40;54.20;;;;;;5077123;28;20048;-51
2020/12/11 10:27:43;;;;;;;1.55;0.10;;;18.40;54.30;;;;;;5083547;28;20059;-51
2020/12/11 10:30:10;;;;;;;0.57;0.00;;;18.40;54.20;;;;;;5086110;28;20048;-54
2020/12/11 10:32:38;;;;;;;2.22;0.00;;;18.40;54.20;;;;;;5085070;28;20126;-52
2020/12/11 10:35:07;;;;;;;0.10;0.00;;;18.40;54.20;;;;;;5083237;28;20052;-51
2020/12/11 10:37:34;;;;;;;0.20;0.00;;;18.40;54.10;;;;;;5081977;28;20126;-51
2020/12/11 10:40:02;;;;;;;0.20;0.20;;;18.50;54.10;;;;;;5067056;28;20040;-49
2020/12/11 10:42:31;;;;;;;0.15;0.00;;;18.50;54.00;;;;;;5084199;28;20500;-50
2020/12/11 10:44:59;;;;;;;0.20;0.00;;;18.50;54.00;;;;;;5076715;28;20117;-49
2020/12/11 10:47:25;;;;;;;0.05;0.00;;;18.50;53.80;;;;;;5084362;28;20044;-46
2020/12/11 10:49:52;;;;;;;0.00;0.00;;;18.50;53.70;;;;;;5089287;28;20800;-49
2020/12/11 10:52:20;;;;;;;0.17;0.00;;;18.50;53.70;;;;;;5089580;28;20072;-54
2020/12/11 10:54:48;;;;;;;1.45;0.00;;;18.50;53.80;;;;;;5088648;28;20059;-53
2020/12/11 10:57:15;;;;;;;0.15;0.10;;;18.50;53.70;;;;;;5077883;28;20139;-54
2020/12/11 10:59:42;;;;;;;0.17;0.10;;;18.60;53.70;;;;;;5078870;28;20077;-53
2020/12/11 11:02:09;;;;;;;1.00;0.00;;;18.60;53.70;;;;;;5075024;28;20123;-58
2020/12/11 11:04:37;;;;;;;0.10;0.00;;;18.60;53.70;;;;;;5077383;28;20389;-48
2020/12/11 11:07:04;;;;;;;2.42;0.03;;;18.60;53.70;;;;;;5081426;28;20059;-51
2020/12/11 11:09:36;;;;;;;0.20;0.00;;;18.60;53.70;;;;;;5072409;28;20814;-52
2020/12/11 11:12:12;;;;;;;8.25;0.20;;;18.60;53.80;;;;;;5073889;28;20123;-61
2020/12/11 11:20:29;;;;;;;1.08;0.43;;;18.60;53.80;;;;;;5079603;28;20489;-63
2020/12/11 11:23:04;;;;;;;0.00;0.00;;;18.60;53.90;;;;;;5078690;28;20048;-65
2020/12/11 11:28:24;;;;;;;0.03;0.00;;;18.60;54.50;;;;;;5008687;28;20046;-59
2020/12/11 11:30:51;;;;;;;0.08;0.00;;;18.60;54.40;;;;;;5009328;28;20056;-53
2020/12/11 11:33:18;;;;;;;0.20;0.00;;;18.60;54.30;;;;;;5005689;28;20050;-51
2020/12/11 11:35:48;;;;;;;0.63;0.10;;;18.60;53.80;;;;;;5006988;28;20054;-50
2020/12/11 11:38:16;;;;;;;0.35;0.10;;;18.60;53.30;;;;;;5005173;28;20048;-55
2020/12/11 11:40:45;;;;;;;0.10;0.00;;;18.60;52.90;;;;;;5005281;28;20580;-54
2020/12/11 11:43:14;;;;;;;1.45;0.00;;;18.60;52.60;;;;;;5005005;28;20061;-55
2020/12/11 11:45:41;;;;;;;0.93;0.30;;;18.70;52.50;;;;;;5005410;28;20076;-54
2020/12/11 11:48:11;;;;;;;1.52;0.03;;;18.70;52.30;;;;;;5006008;28;20656;-54
2020/12/11 11:50:45;;;;;;;2.13;0.10;;;18.70;52.20;;;;;;5006240;28;20058;-53
2020/12/11 11:53:15;;;;;;;1.38;0.10;;;18.70;52.40;;;;;;5001055;28;20049;-51
2020/12/11 11:55:42;;;;;;;0.45;0.10;;;18.70;52.50;;;;;;5002641;28;20053;-58
2020/12/11 11:58:09;;;;;;;0.20;0.13;;;18.70;52.80;;;;;;5002959;28;20675;-59
2020/12/11 12:00:36;;;;;;;0.50;0.10;;;18.70;53.00;;;;;;4973345;28;20061;-59
2020/12/11 12:03:05;;;;;;;4.25;0.10;;;18.70;53.20;;;;;;5010223;28;20533;-60
2020/12/11 12:05:33;;;;;;;2.58;0.10;;;18.80;53.10;;;;;;5080896;28;20051;-60
2020/12/11 12:08:00;;;;;;;3.00;0.10;;;18.80;52.80;;;;;;5081160;28;20062;-60
2020/12/11 12:10:27;;;;;;;1.73;0.30;;;18.80;52.80;;;;;;5081776;28;20036;-60
2020/12/11 12:12:53;;;;;;;2.17;0.10;;;18.80;52.80;;;;;;5083328;28;20047;-61
2020/12/11 12:15:23;;;;;;;1.40;0.20;;;18.80;52.90;;;;;;5082657;28;20050;-61
2020/12/11 12:17:55;;;;;;;0.75;0.20;;;18.80;52.90;;;;;;5081017;28;20051;-61
2020/12/11 12:20:30;;;;;;;0.85;0.40;;;18.80;52.70;;;;;;5082989;28;20044;-61
2020/12/11 12:28:44;;;;;;;4.18;0.10;;;18.80;52.50;;;;;;5000889;28;20068;-61
2020/12/11 12:31:15;;;;;;;0.85;0.10;;;18.80;52.80;;;;;;4991676;28;20050;-61
2020/12/11 12:36:55;;;;;;;1.58;0.10;;;18.80;52.50;;;;;;4987448;28;20180;-62
2020/12/11 12:42:39;;;;;;;0.90;0.10;;;18.80;52.80;;;;;;4944904;29;20047;-58
2020/12/11 12:45:07;;;;;;;1.95;0.10;;;18.80;52.80;;;;;;4943861;29;20051;-61
2020/12/11 12:47:33;;;;;;;0.25;0.10;;;18.80;53.00;;;;;;4946496;29;20118;-59
2020/12/11 12:50:01;;;;;;;1.58;0.10;;;18.90;52.90;;;;;;4946380;29;20051;-56
2020/12/11 12:52:28;;;;;;;0.85;0.10;;;18.90;52.80;;;;;;4946350;29;20042;-54
2020/12/11 12:54:56;;;;;;;0.88;0.13;;;18.90;53.00;;;;;;4945143;29;20523;-58
2020/12/11 12:57:26;;;;;;;1.90;0.10;;;18.90;52.80;;;;;;4945656;29;20063;-58
2020/12/11 12:59:57;;;;;;;3.42;0.10;;;18.90;52.90;;;;;;4946729;29;20062;-60
2020/12/11 13:05:08;;;;;;;1.27;0.10;;;19.00;52.80;;;;;;5006535;28;20050;-58
2020/12/11 13:07:37;;;;;;;0.65;0.10;;;19.00;53.00;;;;;;5014882;28;20042;-58
2020/12/11 13:10:05;;;;;;;0.68;0.20;;;19.00;53.00;;;;;;5023379;28;20053;-59
2020/12/11 13:12:32;;;;;;;3.53;0.10;;;19.00;52.80;;;;;;5025609;28;20054;-58
2020/12/11 13:14:58;;;;;;;0.90;0.10;;;19.00;52.90;;;;;;5014364;28;20204;-58
2020/12/11 13:17:25;;;;;;;0.80;0.10;;;19.00;53.00;;;;;;5078899;28;20106;-58
2020/12/11 13:19:53;;;;;;;0.10;0.10;;;19.10;52.70;;;;;;5080841;28;20151;-58
2020/12/11 13:22:36;;;;;;;0.43;0.10;;;19.10;52.90;;;;;;5076238;28;20036;-60
2020/12/11 13:25:24;;;;;;;1.20;0.25;;;19.10;53.00;;;;;;5073805;28;20044;-58